createdAt,value
2022-09-21T00:01:33.198Z,98.60
2022-09-21T00:04:03.843Z,98.50
2022-09-21T00:06:33.536Z,98.60
2022-09-21T00:09:03.892Z,98.60
2022-09-21T00:11:34.637Z,98.70
2022-09-21T00:14:05.531Z,98.60
2022-09-21T00:16:33.785Z,98.60
2022-09-21T00:19:02.587Z,98.70
2022-09-21T00:21:30.743Z,98.60
2022-09-21T00:24:00.569Z,98.80
2022-09-21T00:26:29.630Z,98.80
2022-09-21T00:29:01.196Z,99.00
2022-09-21T00:31:31.110Z,99.10
2022-09-21T00:34:00.267Z,99.00
2022-09-21T00:36:29.322Z,99.20
2022-09-21T00:39:00.891Z,99.20
2022-09-21T00:41:30.428Z,99.30
2022-09-21T00:44:25.815Z,99.30
2022-09-21T00:46:56.669Z,99.30
2022-09-21T00:49:26.472Z,99.30
2022-09-21T00:51:55.007Z,99.30
2022-09-21T00:54:27.749Z,99.50
2022-09-21T00:56:59.803Z,99.60
2022-09-21T00:59:31.207Z,99.20
2022-09-21T01:02:00.134Z,99.40
2022-09-21T01:04:29.288Z,99.30
2022-09-21T01:06:59.513Z,99.30
2022-09-21T01:09:28.841Z,99.50
2022-09-21T01:12:09.985Z,99.30
2022-09-21T01:14:54.743Z,99.40
2022-09-21T01:17:32.540Z,99.40
2022-09-21T01:20:37.029Z,99.60
2022-09-21T01:23:23.225Z,99.70
2022-09-21T01:26:06.693Z,99.50
2022-09-21T01:29:04.877Z,99.50
2022-09-21T01:31:39.795Z,99.60
2022-09-21T01:34:19.421Z,99.70
2022-09-21T01:36:49.336Z,99.60
2022-09-21T01:39:20.721Z,99.60
2022-09-21T01:41:52.000Z,99.80
2022-09-21T01:44:24.344Z,99.50
2022-09-21T01:46:54.910Z,99.90
2022-09-21T01:49:27.698Z,99.90
2022-09-21T01:51:59.684Z,99.90
2022-09-21T01:54:33.585Z,99.70
2022-09-21T01:57:07.382Z,99.70
2022-09-21T01:59:43.901Z,99.80
2022-09-21T02:02:18.101Z,99.70
2022-09-21T02:04:46.643Z,99.70
2022-09-21T02:07:17.016Z,99.70
2022-09-21T02:09:47.559Z,99.80
2022-09-21T02:12:18.948Z,99.90
2022-09-21T02:14:47.840Z,99.60
2022-09-21T02:17:32.322Z,99.90
2022-09-21T02:20:17.652Z,99.90
2022-09-21T02:22:58.527Z,99.90
2022-09-21T02:25:36.997Z,99.90
2022-09-21T02:28:13.653Z,99.90
2022-09-21T02:30:48.885Z,99.80
2022-09-21T02:33:31.730Z,99.70
2022-09-21T02:36:08.375Z,99.90
2022-09-21T02:38:42.947Z,99.90
2022-09-21T02:41:16.912Z,99.80
2022-09-21T02:43:48.551Z,99.50
2022-09-21T02:46:21.128Z,99.80
2022-09-21T02:48:53.788Z,99.60
2022-09-21T02:51:27.250Z,99.60
2022-09-21T02:53:56.540Z,99.80
2022-09-21T02:56:26.087Z,99.60
2022-09-21T02:58:56.984Z,99.70
2022-09-21T03:01:27.809Z,99.80
2022-09-21T03:03:57.240Z,99.60
2022-09-21T03:06:25.644Z,99.60
2022-09-21T03:08:54.037Z,99.90
2022-09-21T03:11:24.172Z,99.70
2022-09-21T03:13:56.136Z,99.70
2022-09-21T03:16:25.449Z,99.50
2022-09-21T03:18:53.912Z,99.90
2022-09-21T03:21:23.378Z,99.80
2022-09-21T03:23:51.501Z,99.90
2022-09-21T03:26:22.254Z,99.70
2022-09-21T03:28:50.546Z,99.60
2022-09-21T03:31:18.974Z,99.70
2022-09-21T03:33:47.289Z,99.60
2022-09-21T03:36:15.624Z,99.50
2022-09-21T03:38:45.471Z,99.70
2022-09-21T03:41:14.104Z,99.60
2022-09-21T03:43:42.264Z,99.70
2022-09-21T03:46:10.376Z,99.90
2022-09-21T03:48:40.710Z,99.30
2022-09-21T03:51:09.043Z,99.60
2022-09-21T03:53:37.291Z,99.70
2022-09-21T03:56:07.330Z,99.40
2022-09-21T03:58:35.433Z,99.70
2022-09-21T04:01:04.661Z,99.50
2022-09-21T04:03:32.888Z,99.40
2022-09-21T04:06:01.798Z,99.40
2022-09-21T04:08:30.002Z,99.40
2022-09-21T04:10:58.141Z,99.20
2022-09-21T04:13:27.658Z,99.20
2022-09-21T04:15:55.787Z,99.30
2022-09-21T04:18:24.024Z,99.10
2022-09-21T04:20:52.421Z,99.10
2022-09-21T04:23:20.719Z,99.20
2022-09-21T04:25:51.248Z,99.20
2022-09-21T04:28:19.597Z,99.20
2022-09-21T04:30:49.201Z,99.50
2022-09-21T04:33:17.394Z,99.30
2022-09-21T04:35:45.850Z,99.50
2022-09-21T04:38:13.859Z,99.40
2022-09-21T04:40:42.027Z,99.60
2022-09-21T04:43:10.261Z,99.60
2022-09-21T04:45:39.400Z,99.80
2022-09-21T04:48:08.868Z,99.60
2022-09-21T04:50:39.418Z,99.60
2022-09-21T04:53:07.595Z,99.50
2022-09-21T04:55:35.936Z,99.50
2022-09-21T04:58:03.963Z,99.30
2022-09-21T05:00:32.070Z,99.40
2022-09-21T05:03:00.115Z,99.30
2022-09-21T05:05:29.494Z,99.40
2022-09-21T05:07:57.508Z,99.40
2022-09-21T05:10:24.835Z,99.60
2022-09-21T05:12:53.499Z,99.30
2022-09-21T05:15:22.375Z,99.60
2022-09-21T05:17:50.639Z,99.40
2022-09-21T05:20:20.553Z,99.40
2022-09-21T05:22:50.010Z,99.50
2022-09-21T05:25:18.406Z,99.20
2022-09-21T05:27:46.430Z,99.00
2022-09-21T05:30:15.844Z,99.10
2022-09-21T05:32:49.216Z,99.10
2022-09-21T05:35:25.713Z,99.00
2022-09-21T05:37:58.528Z,99.30
2022-09-21T05:40:27.329Z,99.60
2022-09-21T05:42:56.188Z,99.70
2022-09-21T05:45:24.958Z,99.60
2022-09-21T05:48:03.574Z,99.60
2022-09-21T05:50:41.931Z,99.90
2022-09-21T05:53:32.290Z,99.80
2022-09-21T05:56:05.726Z,99.70
2022-09-21T05:58:41.816Z,99.70
2022-09-21T06:01:21.991Z,99.90
2022-09-21T06:03:50.647Z,99.90
2022-09-21T06:06:19.393Z,99.90
2022-09-21T06:08:48.940Z,99.90
2022-09-21T06:11:17.355Z,99.60
2022-09-21T06:13:45.526Z,99.00
2022-09-21T06:16:14.098Z,99.90
2022-09-21T06:18:43.430Z,99.90
2022-09-21T06:21:11.803Z,99.90
2022-09-21T06:23:39.975Z,99.40
2022-09-21T06:26:09.581Z,99.60
2022-09-21T06:28:37.641Z,98.60
2022-09-21T06:31:06.275Z,99.20
2022-09-21T06:33:35.726Z,98.90
2022-09-21T06:36:04.318Z,99.00
2022-09-21T06:38:32.584Z,98.80
2022-09-21T06:41:03.614Z,98.80
2022-09-21T06:43:33.475Z,98.30
2022-09-21T06:46:03.058Z,98.00
2022-09-21T06:48:33.613Z,97.50
2022-09-21T06:51:03.150Z,97.80
2022-09-21T06:53:32.775Z,97.80
2022-09-21T06:56:04.716Z,98.40
2022-09-21T06:58:35.177Z,98.00
2022-09-21T07:01:08.394Z,97.40
2022-09-21T07:03:36.818Z,98.10
2022-09-21T07:06:05.182Z,98.10
2022-09-21T07:11:22.617Z,98.70
2022-09-21T07:13:52.769Z,99.20
2022-09-21T07:16:21.513Z,99.70
2022-09-21T07:18:50.067Z,99.40
2022-09-21T07:21:18.149Z,98.40
2022-09-21T07:23:46.166Z,99.50
2022-09-21T07:26:15.080Z,98.70
2022-09-21T07:28:43.393Z,99.20
2022-09-21T07:31:15.447Z,98.50
2022-09-21T07:33:44.284Z,98.60
2022-09-21T07:36:13.261Z,98.90
2022-09-21T07:38:43.102Z,98.70
2022-09-21T07:41:12.789Z,98.90
2022-09-21T07:43:41.155Z,98.80
2022-09-21T07:46:11.031Z,98.80
2022-09-21T07:48:40.574Z,98.50
2022-09-21T07:51:11.202Z,98.40
2022-09-21T07:53:41.295Z,98.30
2022-09-21T07:56:11.383Z,98.10
2022-09-21T07:58:58.031Z,98.00
2022-09-21T08:01:27.552Z,98.20
2022-09-21T08:03:58.806Z,98.50
2022-09-21T08:06:28.407Z,98.30
2022-09-21T08:08:57.934Z,98.00
2022-09-21T08:11:28.337Z,98.20
2022-09-21T08:13:58.577Z,98.40
2022-09-21T08:16:27.282Z,98.10
2022-09-21T08:18:56.890Z,98.10
2022-09-21T08:21:24.919Z,97.80
2022-09-21T08:23:52.958Z,98.40
2022-09-21T08:26:23.791Z,98.30
2022-09-21T08:28:56.503Z,97.40
2022-09-21T08:31:25.142Z,98.60
2022-09-21T08:33:53.911Z,98.10
2022-09-21T08:36:23.357Z,97.70
2022-09-21T08:38:51.527Z,98.00
2022-09-21T08:41:23.314Z,97.80
2022-09-21T08:43:54.272Z,97.50
2022-09-21T08:46:25.749Z,97.50
2022-09-21T08:49:00.459Z,97.60
2022-09-21T08:51:34.046Z,97.60
2022-09-21T08:54:07.996Z,97.60
2022-09-21T08:57:01.045Z,97.50
2022-09-21T08:59:26.163Z,97.50
2022-09-21T09:02:02.860Z,97.20
2022-09-21T09:04:54.543Z,97.80
2022-09-21T09:07:48.973Z,98.20
2022-09-21T09:10:30.794Z,97.80
2022-09-21T09:13:10.881Z,97.40
2022-09-21T09:16:00.299Z,98.00
2022-09-21T09:18:43.288Z,98.00
2022-09-21T09:21:26.087Z,97.90
2022-09-21T09:24:02.982Z,98.10
2022-09-21T09:26:37.306Z,97.90
2022-09-21T09:29:14.666Z,98.00
2022-09-21T09:31:43.499Z,97.70
2022-09-21T09:34:16.514Z,98.10
2022-09-21T09:37:05.097Z,98.00
2022-09-21T09:39:34.556Z,97.80
2022-09-21T09:42:18.119Z,97.70
2022-09-21T09:45:26.462Z,97.60
2022-09-21T09:48:21.719Z,97.10
2022-09-21T09:50:50.106Z,97.30
2022-09-21T09:53:21.557Z,97.60
2022-09-21T09:55:53.248Z,97.40
2022-09-21T09:58:23.363Z,97.20
2022-09-21T10:00:54.094Z,96.90
2022-09-21T10:03:24.538Z,96.80
2022-09-21T10:05:53.232Z,96.80
2022-09-21T10:08:47.310Z,97.10
2022-09-21T10:11:17.980Z,96.90
2022-09-21T10:13:48.291Z,97.30
2022-09-21T10:16:21.462Z,96.70
2022-09-21T10:18:51.485Z,97.00
2022-09-21T10:21:22.574Z,97.30
2022-09-21T10:23:52.712Z,97.00
2022-09-21T10:26:22.976Z,96.70
2022-09-21T10:28:58.343Z,97.00
2022-09-21T10:31:27.780Z,97.10
2022-09-21T10:34:08.405Z,97.00
2022-09-21T10:36:38.860Z,96.90
2022-09-21T10:39:28.413Z,96.80
2022-09-21T10:42:02.858Z,96.90
2022-09-21T10:44:40.907Z,96.90
2022-09-21T10:47:23.948Z,97.00
2022-09-21T10:49:56.582Z,96.70
2022-09-21T10:52:33.316Z,97.10
2022-09-21T10:55:01.635Z,97.40
2022-09-21T10:57:33.595Z,97.30
2022-09-21T11:00:14.021Z,96.50
2022-09-21T11:02:43.012Z,96.20
2022-09-21T11:05:16.619Z,96.30
2022-09-21T11:07:50.522Z,96.50
2022-09-21T11:10:25.668Z,96.90
2022-09-21T11:13:07.692Z,97.10
2022-09-21T11:15:45.775Z,96.40
2022-09-21T11:18:20.458Z,95.80
2022-09-21T11:20:53.663Z,95.90
2022-09-21T11:23:45.171Z,96.30
2022-09-21T11:26:30.874Z,96.20
2022-09-21T11:29:08.338Z,95.20
2022-09-21T11:32:05.974Z,95.90
2022-09-21T11:34:58.446Z,95.80
2022-09-21T11:37:40.300Z,94.60
2022-09-21T11:40:26.603Z,95.70
2022-09-21T11:43:20.555Z,95.60
2022-09-21T11:46:08.803Z,95.70
2022-09-21T11:49:00.413Z,95.20
2022-09-21T11:51:47.898Z,95.00
2022-09-21T11:54:39.065Z,94.60
2022-09-21T11:57:18.790Z,95.90
2022-09-21T12:00:01.983Z,95.30
2022-09-21T12:03:03.795Z,96.10
2022-09-21T12:05:39.930Z,95.90
2022-09-21T12:08:40.422Z,95.00
2022-09-21T12:11:16.720Z,95.00
2022-09-21T12:13:51.826Z,95.30
2022-09-21T12:16:30.602Z,95.90
2022-09-21T12:19:07.375Z,95.70
2022-09-21T12:21:39.520Z,95.20
2022-09-21T12:24:16.057Z,94.90
2022-09-21T12:26:47.907Z,94.40
2022-09-21T12:29:25.258Z,93.60
2022-09-21T12:32:02.869Z,94.40
2022-09-21T12:34:40.098Z,94.60
2022-09-21T12:37:13.126Z,94.80
2022-09-21T12:39:45.591Z,93.50
2022-09-21T12:42:27.582Z,93.70
2022-09-21T12:45:00.893Z,94.10
2022-09-21T12:47:41.171Z,93.90
2022-09-21T12:50:21.124Z,93.90
2022-09-21T12:52:51.126Z,91.10
2022-09-21T12:55:36.915Z,91.10
2022-09-21T12:58:15.500Z,90.60
2022-09-21T13:01:03.284Z,90.90
2022-09-21T13:03:39.891Z,90.90
2022-09-21T13:06:39.772Z,92.10
2022-09-21T13:09:12.763Z,90.70
2022-09-21T13:11:54.442Z,90.50
2022-09-21T13:14:24.175Z,90.30
2022-09-21T13:16:58.569Z,91.70
2022-09-21T13:19:29.084Z,92.00
2022-09-21T13:22:22.964Z,89.40
2022-09-21T13:25:03.017Z,91.50
2022-09-21T13:28:07.647Z,90.70
2022-09-21T13:30:40.915Z,90.70
2022-09-21T13:33:30.955Z,91.00
2022-09-21T13:36:30.031Z,90.40
2022-09-21T13:39:20.023Z,90.90
2022-09-21T13:42:04.117Z,90.80
2022-09-21T13:44:44.115Z,90.90
2022-09-21T13:47:14.587Z,91.00
2022-09-21T13:49:53.936Z,90.80
2022-09-21T13:52:41.514Z,90.90
2022-09-21T13:55:25.918Z,91.10
2022-09-21T13:57:56.726Z,91.80
2022-09-21T14:00:35.007Z,91.80
2022-09-21T14:03:06.050Z,91.90
2022-09-21T14:05:40.190Z,91.80
2022-09-21T14:08:21.994Z,92.70
2022-09-21T14:10:55.453Z,92.80
2022-09-21T14:13:32.083Z,93.40
2022-09-21T14:16:34.026Z,94.00
2022-09-21T14:19:03.426Z,93.90
2022-09-21T14:21:31.877Z,93.60
2022-09-21T14:24:23.517Z,93.60
2022-09-21T14:27:05.231Z,93.80
2022-09-21T14:29:44.213Z,94.20
2022-09-21T14:32:17.268Z,94.10
2022-09-21T14:34:49.626Z,93.10
2022-09-21T14:37:28.976Z,93.60
2022-09-21T14:39:58.249Z,92.90
2022-09-21T14:42:30.139Z,92.10
2022-09-21T14:45:00.367Z,92.50
2022-09-21T14:47:42.182Z,93.00
2022-09-21T14:50:26.903Z,92.80
2022-09-21T14:53:29.236Z,92.60
2022-09-21T14:56:10.783Z,93.00
2022-09-21T14:58:52.374Z,92.50
2022-09-21T15:01:27.223Z,92.70
2022-09-21T15:04:10.964Z,92.90
2022-09-21T15:07:02.859Z,92.90
2022-09-21T15:10:02.617Z,92.60
2022-09-21T15:12:47.050Z,92.80
2022-09-21T15:15:30.833Z,92.90
2022-09-21T15:18:01.888Z,93.30
2022-09-21T15:20:32.917Z,93.50
2022-09-21T15:23:02.150Z,93.30
2022-09-21T15:25:33.599Z,93.30
2022-09-21T15:28:01.961Z,93.50
2022-09-21T15:30:34.166Z,93.90
2022-09-21T15:33:03.651Z,94.40
2022-09-21T15:35:34.212Z,94.40
2022-09-21T15:38:02.404Z,94.50
2022-09-21T15:40:33.334Z,94.90
2022-09-21T15:43:05.556Z,95.10
2022-09-21T15:45:51.846Z,95.50
2022-09-21T15:48:20.589Z,95.80
2022-09-21T15:50:52.809Z,95.60
2022-09-21T15:53:24.620Z,95.50
2022-09-21T15:55:53.025Z,95.30
2022-09-21T15:58:31.709Z,95.50
2022-09-21T16:01:01.426Z,95.60
2022-09-21T16:03:30.073Z,95.70
2022-09-21T16:06:02.344Z,95.50
2022-09-21T16:08:33.539Z,95.50
2022-09-21T16:11:14.267Z,96.10
2022-09-21T16:14:00.696Z,96.00
2022-09-21T16:16:30.193Z,96.40
2022-09-21T16:19:00.590Z,96.10
2022-09-21T16:21:32.814Z,96.10
2022-09-21T16:24:12.326Z,96.40
2022-09-21T16:26:42.598Z,96.10
2022-09-21T16:29:23.480Z,96.20
2022-09-21T16:31:53.529Z,95.90
2022-09-21T16:34:26.541Z,95.60
2022-09-21T16:36:55.015Z,95.70
2022-09-21T16:39:23.941Z,95.90
2022-09-21T16:41:58.347Z,96.00
2022-09-21T16:44:27.968Z,96.00
2022-09-21T16:47:00.242Z,96.10
2022-09-21T16:49:33.544Z,95.90
2022-09-21T16:52:01.891Z,95.80
2022-09-21T16:54:31.003Z,95.80
2022-09-21T16:57:00.769Z,95.80
2022-09-21T16:59:29.415Z,95.80
2022-09-21T17:02:00.396Z,95.90
2022-09-21T17:04:31.282Z,96.00
2022-09-21T17:07:00.804Z,96.00
2022-09-21T17:09:32.329Z,96.10
2022-09-21T17:12:01.774Z,96.10
2022-09-21T17:14:35.608Z,96.00
2022-09-21T17:17:08.895Z,96.00
2022-09-21T17:19:42.122Z,96.00
2022-09-21T17:22:17.322Z,96.00
2022-09-21T17:24:50.804Z,96.00
2022-09-21T17:27:21.443Z,96.00
2022-09-21T17:29:50.599Z,95.90
2022-09-21T17:32:22.011Z,95.70
2022-09-21T17:34:56.297Z,95.80
2022-09-21T17:37:25.324Z,95.80
2022-09-21T17:39:54.562Z,95.80
2022-09-21T17:42:26.075Z,96.20
2022-09-21T17:45:04.915Z,95.80
2022-09-21T17:47:35.044Z,96.30
2022-09-21T17:50:16.635Z,96.00
2022-09-21T17:53:04.077Z,96.20
2022-09-21T17:55:32.908Z,96.00
2022-09-21T17:58:31.100Z,96.20
2022-09-21T18:01:07.459Z,96.70
2022-09-21T18:03:42.396Z,96.30
2022-09-21T18:06:11.861Z,96.30
2022-09-21T18:08:40.900Z,96.40
2022-09-21T18:11:20.242Z,96.30
2022-09-21T18:13:57.072Z,96.30
2022-09-21T18:16:28.542Z,96.10
2022-09-21T18:19:05.755Z,96.00
2022-09-21T18:21:38.238Z,96.20
2022-09-21T18:24:21.008Z,96.20
2022-09-21T18:26:52.320Z,96.30
2022-09-21T18:29:46.514Z,96.30
2022-09-21T18:32:41.123Z,96.30
2022-09-21T18:35:36.114Z,96.30
2022-09-21T18:38:18.365Z,96.40
2022-09-21T18:41:00.371Z,96.30
2022-09-21T18:43:35.429Z,96.20
2022-09-21T18:46:07.807Z,96.10
2022-09-21T18:48:50.847Z,96.40
2022-09-21T18:51:24.963Z,96.50
2022-09-21T18:53:56.061Z,96.50
2022-09-21T18:56:25.188Z,96.50
2022-09-21T18:58:54.019Z,96.40
2022-09-21T19:01:23.737Z,96.40
2022-09-21T19:03:52.523Z,96.70
2022-09-21T19:06:32.594Z,96.60
2022-09-21T19:09:08.898Z,96.90
2022-09-21T19:11:44.676Z,97.10
2022-09-21T19:14:21.630Z,97.00
2022-09-21T19:17:04.995Z,97.20
2022-09-21T19:19:41.783Z,97.30
2022-09-21T19:22:16.546Z,97.30
2022-09-21T19:24:55.997Z,97.40
2022-09-21T19:27:33.393Z,97.40
2022-09-21T19:30:06.987Z,97.10
2022-09-21T19:32:39.870Z,96.70
2022-09-21T19:35:19.595Z,96.90
2022-09-21T19:37:50.245Z,96.90
2022-09-21T19:40:20.470Z,97.00
2022-09-21T19:43:06.178Z,96.90
2022-09-21T19:45:45.575Z,97.00
2022-09-21T19:48:16.943Z,97.10
2022-09-21T19:50:53.173Z,96.80
2022-09-21T19:53:40.997Z,96.80
2022-09-21T19:56:29.968Z,96.90
2022-09-21T19:59:15.998Z,97.00
2022-09-21T20:01:52.533Z,97.00
2022-09-21T20:04:28.010Z,97.00
2022-09-21T20:07:03.270Z,97.10
2022-09-21T20:09:38.148Z,97.20
2022-09-21T20:12:16.064Z,97.20
2022-09-21T20:14:48.320Z,97.40
2022-09-21T20:17:22.122Z,97.40
2022-09-21T20:19:55.958Z,97.40
2022-09-21T20:22:34.295Z,97.10
2022-09-21T20:25:10.930Z,97.20
2022-09-21T20:27:41.610Z,96.90
2022-09-21T20:30:12.209Z,97.00
2022-09-21T20:32:42.865Z,96.70
2022-09-21T20:35:17.038Z,97.20
2022-09-21T20:37:45.668Z,97.10
2022-09-21T20:40:16.359Z,97.30
2022-09-21T20:42:44.569Z,97.20
2022-09-21T20:45:13.942Z,97.20
2022-09-21T20:47:42.143Z,96.90
2022-09-21T20:50:13.530Z,97.00
2022-09-21T20:52:42.550Z,96.80
2022-09-21T20:55:13.415Z,97.20
2022-09-21T20:57:42.849Z,96.80
2022-09-21T21:00:13.134Z,97.00
2022-09-21T21:02:41.692Z,96.80
2022-09-21T21:05:11.168Z,96.80
2022-09-21T21:07:42.375Z,96.80
2022-09-21T21:10:13.208Z,96.90
2022-09-21T21:12:42.836Z,97.00
2022-09-21T21:15:12.489Z,97.00
2022-09-21T21:17:40.941Z,96.90
2022-09-21T21:20:10.346Z,97.30
2022-09-21T21:22:38.389Z,97.30
2022-09-21T21:25:07.172Z,97.50
2022-09-21T21:27:35.815Z,97.50
2022-09-21T21:30:06.932Z,97.40
2022-09-21T21:32:35.156Z,97.40
2022-09-21T21:35:03.538Z,97.40
2022-09-21T21:37:31.789Z,97.50
2022-09-21T21:39:59.873Z,97.40
2022-09-21T21:42:29.491Z,97.60
2022-09-21T21:44:57.769Z,97.70
2022-09-21T21:47:39.172Z,97.80
2022-09-21T21:50:08.211Z,97.90
2022-09-21T21:52:36.258Z,97.80
2022-09-21T21:55:04.923Z,97.80
2022-09-21T21:57:33.197Z,97.90
2022-09-21T22:00:01.367Z,97.70
2022-09-21T22:02:32.363Z,97.70
2022-09-21T22:05:00.650Z,97.80
2022-09-21T22:07:28.628Z,97.80
2022-09-21T22:09:56.658Z,97.80
2022-09-21T22:12:26.078Z,97.70
2022-09-21T22:14:54.039Z,97.70
2022-09-21T22:17:22.039Z,97.90
2022-09-21T22:19:51.369Z,98.00
2022-09-21T22:22:19.651Z,97.90
2022-09-21T22:24:48.036Z,98.00
2022-09-21T22:27:16.412Z,97.80
2022-09-21T22:29:44.956Z,97.80
2022-09-21T22:32:13.068Z,97.80
2022-09-21T22:34:41.098Z,98.00
2022-09-21T22:37:10.682Z,97.90
2022-09-21T22:39:38.659Z,97.90
2022-09-21T22:42:06.975Z,98.00
2022-09-21T22:44:35.278Z,97.90
2022-09-21T22:47:03.574Z,98.10
2022-09-21T22:49:31.848Z,98.10
2022-09-21T22:51:59.927Z,98.00
2022-09-21T22:54:29.290Z,98.00
2022-09-21T22:56:57.629Z,98.20
2022-09-21T22:59:25.918Z,98.10
2022-09-21T23:01:54.246Z,98.10
2022-09-21T23:04:22.397Z,98.10
2022-09-21T23:06:51.193Z,98.30
2022-09-21T23:09:21.605Z,98.00
2022-09-21T23:11:53.166Z,98.10
2022-09-21T23:14:22.579Z,98.10
2022-09-21T23:16:50.698Z,98.20
2022-09-21T23:19:18.682Z,98.40
2022-09-21T23:21:49.540Z,98.60
2022-09-21T23:24:18.213Z,98.40
2022-09-21T23:26:46.649Z,98.50
2022-09-21T23:29:17.039Z,98.60
2022-09-21T23:31:46.417Z,98.60
2022-09-21T23:34:15.236Z,98.50
2022-09-21T23:36:45.013Z,98.60
2022-09-21T23:39:14.291Z,98.70
2022-09-21T23:41:42.499Z,98.70
2022-09-21T23:44:10.655Z,98.60
2022-09-21T23:46:41.031Z,98.80
2022-09-21T23:49:09.448Z,98.80
2022-09-21T23:51:37.794Z,98.60
2022-09-21T23:54:06.372Z,98.60
2022-09-21T23:56:34.710Z,98.70
2022-09-21T23:59:02.815Z,98.60
